ROMMA est une association bénévole à but non lucratif. Votre soutien est indispensable : ADHERER à ROMMA ou FAIRE un DON

St-Christophe/Guiers - Berland - (38, Isère)

Massif de la Chartreuse (533 m)   Longitude: 05° 46' 44" E   Latitude: 45° 25' 43" N Station partenaire n°32
 

Détail journalier du     <<     >>

Température Precipitation Humidité Pression Vent Dir Rafale Dir. rafale Ensol.
Heure (°C) (mm) (%) (hPa) (km/h) (km/h) (min)
01:00 9.607910212ENE8ENE0
02:00 9.308110216NE15NNE0
03:00 8.608410204NE16NE0
04:00 8.108710202ENE11ENE0
05:00 7.8089101900---0
06:00 7.8087102000---0
07:00 6.4090102000---0
08:00 7.108810211---8ENE15
09:00 10.808010211E6ENE45
10:00 11.2078102100---35
11:00 13.207310213SSO10SSO60
12:00 14.806610203O8OSO60
13:00 16.806210204O11O60
14:00 17.705910194ONO11ONO50
15:00 18.905810194ONO15ONO50
16:00 19.205810196SO19SSO50
17:00 19.105910199SO18SO45
18:00 18.406010198SO16SO0
19:00 18.105710206SO15SO0
20:00 16.506510201SO5O10
21:00 15.306210211SSO8SSO0
22:00 14.306510222E8E0
23:00 12.607210225E8E0
minuit 12.107210234ENE8ENE0

Graphique du 18-04-2019

 

Serveur OMMA